sensor_id;sensor_type;location;lat;lon;timestamp;P1;durP1;ratioP1;P2;durP2;ratioP2
26600;SDS011;14241;49.260;10.496;2023-05-24T00:02:13;11.07;;;3.78;;
26600;SDS011;14241;49.260;10.496;2023-05-24T00:04:39;8.52;;;3.47;;
26600;SDS011;14241;49.260;10.496;2023-05-24T00:07:04;11.30;;;4.07;;
26600;SDS011;14241;49.260;10.496;2023-05-24T00:09:31;13.80;;;4.07;;
26600;SDS011;14241;49.260;10.496;2023-05-24T00:11:56;12.30;;;3.72;;
26600;SDS011;14241;49.260;10.496;2023-05-24T00:14:22;8.15;;;3.13;;
26600;SDS011;14241;49.260;10.496;2023-05-24T00:16:47;7.38;;;3.35;;
26600;SDS011;14241;49.260;10.496;2023-05-24T00:19:12;12.20;;;3.90;;
26600;SDS011;14241;49.260;10.496;2023-05-24T00:21:42;7.50;;;3.72;;
26600;SDS011;14241;49.260;10.496;2023-05-24T00:24:08;7.60;;;3.33;;
26600;SDS011;14241;49.260;10.496;2023-05-24T00:26:35;8.70;;;3.13;;
26600;SDS011;14241;49.260;10.496;2023-05-24T00:29:00;8.68;;;3.30;;
26600;SDS011;14241;49.260;10.496;2023-05-24T00:31:25;7.07;;;3.65;;
26600;SDS011;14241;49.260;10.496;2023-05-24T00:33:50;8.30;;;3.60;;
26600;SDS011;14241;49.260;10.496;2023-05-24T00:36:16;13.93;;;3.53;;
26600;SDS011;14241;49.260;10.496;2023-05-24T00:38:41;12.57;;;3.90;;
26600;SDS011;14241;49.260;10.496;2023-05-24T00:41:06;9.37;;;3.50;;
26600;SDS011;14241;49.260;10.496;2023-05-24T00:43:31;10.17;;;3.63;;
26600;SDS011;14241;49.260;10.496;2023-05-24T00:46:19;10.40;;;3.57;;
26600;SDS011;14241;49.260;10.496;2023-05-24T00:48:42;8.85;;;3.80;;
26600;SDS011;14241;49.260;10.496;2023-05-24T00:51:08;11.27;;;3.95;;
26600;SDS011;14241;49.260;10.496;2023-05-24T00:53:34;10.40;;;3.65;;
26600;SDS011;14241;49.260;10.496;2023-05-24T00:56:00;9.80;;;3.75;;
26600;SDS011;14241;49.260;10.496;2023-05-24T00:58:27;8.90;;;3.83;;
26600;SDS011;14241;49.260;10.496;2023-05-24T01:00:56;8.10;;;3.55;;
26600;SDS011;14241;49.260;10.496;2023-05-24T01:03:23;12.95;;;3.47;;
26600;SDS011;14241;49.260;10.496;2023-05-24T01:05:49;9.10;;;3.47;;
26600;SDS011;14241;49.260;10.496;2023-05-24T01:11:00;10.15;;;4.20;;
26600;SDS011;14241;49.260;10.496;2023-05-24T01:13:30;11.10;;;4.13;;
26600;SDS011;14241;49.260;10.496;2023-05-24T01:16:00;12.30;;;4.40;;
26600;SDS011;14241;49.260;10.496;2023-05-24T01:18:33;8.63;;;3.70;;
26600;SDS011;14241;49.260;10.496;2023-05-24T01:28:30;10.70;;;4.00;;
26600;SDS011;14241;49.260;10.496;2023-05-24T01:30:55;12.70;;;4.07;;
26600;SDS011;14241;49.260;10.496;2023-05-24T01:33:21;9.10;;;3.55;;
26600;SDS011;14241;49.260;10.496;2023-05-24T01:35:46;10.68;;;4.00;;
26600;SDS011;14241;49.260;10.496;2023-05-24T01:38:12;8.75;;;3.90;;
26600;SDS011;14241;49.260;10.496;2023-05-24T01:40:38;6.95;;;3.58;;
26600;SDS011;14241;49.260;10.496;2023-05-24T01:46:18;8.48;;;3.63;;
26600;SDS011;14241;49.260;10.496;2023-05-24T01:48:52;10.63;;;3.80;;
26600;SDS011;14241;49.260;10.496;2023-05-24T01:51:20;10.10;;;3.75;;
26600;SDS011;14241;49.260;10.496;2023-05-24T01:53:46;12.10;;;3.90;;
26600;SDS011;14241;49.260;10.496;2023-05-24T01:56:13;10.00;;;3.85;;
26600;SDS011;14241;49.260;10.496;2023-05-24T01:58:40;10.23;;;3.88;;
26600;SDS011;14241;49.260;10.496;2023-05-24T02:01:06;9.77;;;4.00;;
26600;SDS011;14241;49.260;10.496;2023-05-24T02:03:31;6.13;;;3.92;;
26600;SDS011;14241;49.260;10.496;2023-05-24T02:05:56;10.27;;;4.47;;
26600;SDS011;14241;49.260;10.496;2023-05-24T02:08:22;10.45;;;4.43;;
26600;SDS011;14241;49.260;10.496;2023-05-24T02:10:47;11.90;;;4.45;;
26600;SDS011;14241;49.260;10.496;2023-05-24T02:13:12;11.32;;;5.15;;
26600;SDS011;14241;49.260;10.496;2023-05-24T02:15:37;10.80;;;4.47;;
26600;SDS011;14241;49.260;10.496;2023-05-24T02:18:05;13.55;;;4.40;;
26600;SDS011;14241;49.260;10.496;2023-05-24T02:20:32;10.10;;;4.32;;
26600;SDS011;14241;49.260;10.496;2023-05-24T02:23:00;10.00;;;4.55;;
26600;SDS011;14241;49.260;10.496;2023-05-24T02:25:25;12.32;;;4.57;;
26600;SDS011;14241;49.260;10.496;2023-05-24T02:27:51;9.70;;;4.28;;
26600;SDS011;14241;49.260;10.496;2023-05-24T02:30:16;11.43;;;4.63;;
26600;SDS011;14241;49.260;10.496;2023-05-24T02:32:42;13.52;;;4.63;;
26600;SDS011;14241;49.260;10.496;2023-05-24T02:35:07;11.02;;;4.30;;
26600;SDS011;14241;49.260;10.496;2023-05-24T02:37:32;13.52;;;4.93;;
26600;SDS011;14241;49.260;10.496;2023-05-24T02:39:57;9.27;;;4.87;;
26600;SDS011;14241;49.260;10.496;2023-05-24T02:42:23;9.57;;;4.90;;
26600;SDS011;14241;49.260;10.496;2023-05-24T02:44:48;10.30;;;5.27;;
26600;SDS011;14241;49.260;10.496;2023-05-24T02:47:16;13.68;;;5.07;;
26600;SDS011;14241;49.260;10.496;2023-05-24T02:49:41;13.57;;;4.70;;
26600;SDS011;14241;49.260;10.496;2023-05-24T02:52:07;12.32;;;4.47;;
26600;SDS011;14241;49.260;10.496;2023-05-24T02:54:32;11.38;;;4.65;;
26600;SDS011;14241;49.260;10.496;2023-05-24T02:56:57;12.17;;;5.37;;
26600;SDS011;14241;49.260;10.496;2023-05-24T02:59:23;9.23;;;4.50;;
26600;SDS011;14241;49.260;10.496;2023-05-24T03:01:48;10.00;;;4.97;;
26600;SDS011;14241;49.260;10.496;2023-05-24T03:04:13;14.88;;;4.85;;
26600;SDS011;14241;49.260;10.496;2023-05-24T03:06:38;10.97;;;4.33;;
26600;SDS011;14241;49.260;10.496;2023-05-24T03:09:04;13.60;;;4.75;;
26600;SDS011;14241;49.260;10.496;2023-05-24T03:11:30;10.27;;;4.55;;
26600;SDS011;14241;49.260;10.496;2023-05-24T03:13:55;11.67;;;4.40;;
26600;SDS011;14241;49.260;10.496;2023-05-24T03:16:20;10.88;;;4.53;;
26600;SDS011;14241;49.260;10.496;2023-05-24T03:18:45;12.20;;;4.78;;
26600;SDS011;14241;49.260;10.496;2023-05-24T03:21:11;11.23;;;4.40;;
26600;SDS011;14241;49.260;10.496;2023-05-24T03:23:36;14.27;;;4.47;;
26600;SDS011;14241;49.260;10.496;2023-05-24T03:26:01;13.25;;;4.65;;
26600;SDS011;14241;49.260;10.496;2023-05-24T03:28:26;10.77;;;4.90;;
26600;SDS011;14241;49.260;10.496;2023-05-24T03:30:52;14.65;;;5.00;;
26600;SDS011;14241;49.260;10.496;2023-05-24T03:33:17;13.50;;;4.88;;
26600;SDS011;14241;49.260;10.496;2023-05-24T03:35:43;10.93;;;4.63;;
26600;SDS011;14241;49.260;10.496;2023-05-24T03:38:08;10.07;;;5.03;;
26600;SDS011;14241;49.260;10.496;2023-05-24T03:40:33;13.57;;;4.70;;
26600;SDS011;14241;49.260;10.496;2023-05-24T03:42:59;9.50;;;4.43;;
26600;SDS011;14241;49.260;10.496;2023-05-24T03:45:24;10.27;;;4.18;;
26600;SDS011;14241;49.260;10.496;2023-05-24T03:47:50;11.85;;;4.70;;
26600;SDS011;14241;49.260;10.496;2023-05-24T03:50:15;14.93;;;5.05;;
26600;SDS011;14241;49.260;10.496;2023-05-24T03:52:41;14.23;;;4.87;;
26600;SDS011;14241;49.260;10.496;2023-05-24T03:55:06;12.65;;;5.13;;
26600;SDS011;14241;49.260;10.496;2023-05-24T03:57:31;12.32;;;4.72;;
26600;SDS011;14241;49.260;10.496;2023-05-24T03:59:57;10.07;;;4.43;;
26600;SDS011;14241;49.260;10.496;2023-05-24T04:02:24;9.20;;;4.35;;
26600;SDS011;14241;49.260;10.496;2023-05-24T04:04:49;10.50;;;4.40;;
26600;SDS011;14241;49.260;10.496;2023-05-24T04:07:14;11.55;;;4.22;;
26600;SDS011;14241;49.260;10.496;2023-05-24T04:09:40;12.35;;;4.68;;
26600;SDS011;14241;49.260;10.496;2023-05-24T04:12:05;14.85;;;4.95;;
26600;SDS011;14241;49.260;10.496;2023-05-24T04:14:30;11.43;;;4.80;;
26600;SDS011;14241;49.260;10.496;2023-05-24T04:16:56;8.80;;;4.50;;
26600;SDS011;14241;49.260;10.496;2023-05-24T04:19:22;10.02;;;4.47;;
26600;SDS011;14241;49.260;10.496;2023-05-24T04:21:48;12.55;;;4.70;;
26600;SDS011;14241;49.260;10.496;2023-05-24T04:24:13;9.73;;;4.50;;
26600;SDS011;14241;49.260;10.496;2023-05-24T04:26:38;12.23;;;5.07;;
26600;SDS011;14241;49.260;10.496;2023-05-24T04:29:04;10.38;;;4.45;;
26600;SDS011;14241;49.260;10.496;2023-05-24T04:31:29;10.07;;;4.10;;
26600;SDS011;14241;49.260;10.496;2023-05-24T04:33:57;12.70;;;4.82;;
26600;SDS011;14241;49.260;10.496;2023-05-24T04:36:23;13.45;;;3.92;;
26600;SDS011;14241;49.260;10.496;2023-05-24T04:38:49;10.63;;;4.45;;
26600;SDS011;14241;49.260;10.496;2023-05-24T04:41:17;11.93;;;4.30;;
26600;SDS011;14241;49.260;10.496;2023-05-24T04:43:42;11.02;;;4.63;;
26600;SDS011;14241;49.260;10.496;2023-05-24T04:46:09;14.65;;;4.70;;
26600;SDS011;14241;49.260;10.496;2023-05-24T04:48:34;11.98;;;4.72;;
26600;SDS011;14241;49.260;10.496;2023-05-24T04:51:00;9.10;;;3.97;;
26600;SDS011;14241;49.260;10.496;2023-05-24T04:53:25;10.07;;;4.35;;
26600;SDS011;14241;49.260;10.496;2023-05-24T04:55:50;16.35;;;5.15;;
26600;SDS011;14241;49.260;10.496;2023-05-24T04:58:16;11.93;;;4.03;;
26600;SDS011;14241;49.260;10.496;2023-05-24T05:00:41;11.40;;;4.18;;
26600;SDS011;14241;49.260;10.496;2023-05-24T05:03:07;9.48;;;4.07;;
26600;SDS011;14241;49.260;10.496;2023-05-24T05:05:32;8.52;;;4.40;;
26600;SDS011;14241;49.260;10.496;2023-05-24T05:07:58;11.10;;;4.03;;
26600;SDS011;14241;49.260;10.496;2023-05-24T05:10:23;15.60;;;4.63;;
26600;SDS011;14241;49.260;10.496;2023-05-24T05:12:48;10.32;;;3.80;;
26600;SDS011;14241;49.260;10.496;2023-05-24T05:15:13;16.20;;;4.43;;
26600;SDS011;14241;49.260;10.496;2023-05-24T05:17:39;13.17;;;3.87;;
26600;SDS011;14241;49.260;10.496;2023-05-24T05:20:04;14.27;;;4.65;;
26600;SDS011;14241;49.260;10.496;2023-05-24T05:22:29;10.93;;;4.45;;
26600;SDS011;14241;49.260;10.496;2023-05-24T05:24:55;13.98;;;3.90;;
26600;SDS011;14241;49.260;10.496;2023-05-24T05:27:20;12.93;;;4.25;;
26600;SDS011;14241;49.260;10.496;2023-05-24T05:29:45;15.40;;;4.10;;
26600;SDS011;14241;49.260;10.496;2023-05-24T05:32:10;14.32;;;3.85;;
26600;SDS011;14241;49.260;10.496;2023-05-24T05:34:37;12.55;;;4.30;;
26600;SDS011;14241;49.260;10.496;2023-05-24T05:37:02;14.02;;;4.20;;
26600;SDS011;14241;49.260;10.496;2023-05-24T05:39:27;11.32;;;4.32;;
26600;SDS011;14241;49.260;10.496;2023-05-24T05:41:53;11.27;;;3.67;;
26600;SDS011;14241;49.260;10.496;2023-05-24T05:44:18;11.13;;;3.70;;
26600;SDS011;14241;49.260;10.496;2023-05-24T05:46:43;14.20;;;4.65;;
26600;SDS011;14241;49.260;10.496;2023-05-24T05:49:10;13.27;;;4.15;;
26600;SDS011;14241;49.260;10.496;2023-05-24T05:51:36;11.98;;;3.97;;
26600;SDS011;14241;49.260;10.496;2023-05-24T05:54:03;14.55;;;4.22;;
26600;SDS011;14241;49.260;10.496;2023-05-24T05:56:28;13.60;;;3.78;;
26600;SDS011;14241;49.260;10.496;2023-05-24T05:58:53;11.30;;;3.73;;
26600;SDS011;14241;49.260;10.496;2023-05-24T06:01:18;11.33;;;3.97;;
26600;SDS011;14241;49.260;10.496;2023-05-24T06:03:43;13.57;;;3.90;;
26600;SDS011;14241;49.260;10.496;2023-05-24T06:06:09;11.45;;;3.78;;
26600;SDS011;14241;49.260;10.496;2023-05-24T06:08:34;9.47;;;3.83;;
26600;SDS011;14241;49.260;10.496;2023-05-24T06:11:00;12.73;;;3.85;;
26600;SDS011;14241;49.260;10.496;2023-05-24T06:13:25;13.77;;;4.40;;
26600;SDS011;14241;49.260;10.496;2023-05-24T06:15:52;9.73;;;3.80;;
26600;SDS011;14241;49.260;10.496;2023-05-24T06:18:17;11.80;;;4.00;;
26600;SDS011;14241;49.260;10.496;2023-05-24T06:20:43;11.18;;;4.00;;
26600;SDS011;14241;49.260;10.496;2023-05-24T06:23:08;10.77;;;3.60;;
26600;SDS011;14241;49.260;10.496;2023-05-24T06:25:33;11.98;;;4.35;;
26600;SDS011;14241;49.260;10.496;2023-05-24T06:27:59;10.93;;;4.00;;
26600;SDS011;14241;49.260;10.496;2023-05-24T06:30:24;19.20;;;4.50;;
26600;SDS011;14241;49.260;10.496;2023-05-24T06:32:50;12.85;;;4.10;;
26600;SDS011;14241;49.260;10.496;2023-05-24T06:35:15;11.48;;;3.63;;
26600;SDS011;14241;49.260;10.496;2023-05-24T06:37:40;14.63;;;4.47;;
26600;SDS011;14241;49.260;10.496;2023-05-24T06:40:06;12.52;;;3.95;;
26600;SDS011;14241;49.260;10.496;2023-05-24T06:42:33;9.30;;;3.40;;
26600;SDS011;14241;49.260;10.496;2023-05-24T06:44:59;9.48;;;4.25;;
26600;SDS011;14241;49.260;10.496;2023-05-24T06:47:24;14.53;;;4.47;;
26600;SDS011;14241;49.260;10.496;2023-05-24T06:49:49;13.43;;;4.10;;
26600;SDS011;14241;49.260;10.496;2023-05-24T06:52:14;11.48;;;4.00;;
26600;SDS011;14241;49.260;10.496;2023-05-24T06:54:40;11.82;;;3.63;;
26600;SDS011;14241;49.260;10.496;2023-05-24T06:57:05;15.35;;;4.45;;
26600;SDS011;14241;49.260;10.496;2023-05-24T06:59:30;8.80;;;3.78;;
26600;SDS011;14241;49.260;10.496;2023-05-24T07:01:56;12.20;;;4.30;;
26600;SDS011;14241;49.260;10.496;2023-05-24T07:04:24;9.55;;;4.10;;
26600;SDS011;14241;49.260;10.496;2023-05-24T07:06:49;12.57;;;3.90;;
26600;SDS011;14241;49.260;10.496;2023-05-24T07:09:16;10.68;;;3.60;;
26600;SDS011;14241;49.260;10.496;2023-05-24T07:11:41;12.65;;;3.65;;
26600;SDS011;14241;49.260;10.496;2023-05-24T07:14:06;10.25;;;3.83;;
26600;SDS011;14241;49.260;10.496;2023-05-24T07:16:32;14.23;;;4.70;;
26600;SDS011;14241;49.260;10.496;2023-05-24T07:18:57;12.23;;;4.37;;
26600;SDS011;14241;49.260;10.496;2023-05-24T07:21:22;14.03;;;3.80;;
26600;SDS011;14241;49.260;10.496;2023-05-24T07:23:49;10.38;;;3.97;;
26600;SDS011;14241;49.260;10.496;2023-05-24T07:26:14;10.02;;;3.83;;
26600;SDS011;14241;49.260;10.496;2023-05-24T07:28:39;15.17;;;4.13;;
26600;SDS011;14241;49.260;10.496;2023-05-24T07:31:07;10.95;;;3.92;;
26600;SDS011;14241;49.260;10.496;2023-05-24T07:33:35;12.10;;;3.83;;
26600;SDS011;14241;49.260;10.496;2023-05-24T07:36:00;9.57;;;3.63;;
26600;SDS011;14241;49.260;10.496;2023-05-24T07:38:26;13.35;;;3.92;;
26600;SDS011;14241;49.260;10.496;2023-05-24T07:40:53;14.10;;;3.85;;
26600;SDS011;14241;49.260;10.496;2023-05-24T07:43:18;18.80;;;4.28;;
26600;SDS011;14241;49.260;10.496;2023-05-24T07:45:43;10.63;;;3.38;;
26600;SDS011;14241;49.260;10.496;2023-05-24T07:48:09;12.90;;;3.88;;
26600;SDS011;14241;49.260;10.496;2023-05-24T07:50:34;11.98;;;3.90;;
26600;SDS011;14241;49.260;10.496;2023-05-24T07:53:00;10.65;;;3.58;;
26600;SDS011;14241;49.260;10.496;2023-05-24T07:55:25;9.50;;;3.40;;
26600;SDS011;14241;49.260;10.496;2023-05-24T07:57:51;13.50;;;3.67;;
26600;SDS011;14241;49.260;10.496;2023-05-24T08:00:17;17.88;;;4.40;;
26600;SDS011;14241;49.260;10.496;2023-05-24T08:02:44;13.48;;;4.43;;
26600;SDS011;14241;49.260;10.496;2023-05-24T08:05:13;12.60;;;3.53;;
26600;SDS011;14241;49.260;10.496;2023-05-24T08:07:39;13.95;;;4.00;;
26600;SDS011;14241;49.260;10.496;2023-05-24T08:10:06;11.82;;;3.35;;
26600;SDS011;14241;49.260;10.496;2023-05-24T08:12:31;12.85;;;3.75;;
26600;SDS011;14241;49.260;10.496;2023-05-24T08:14:56;13.52;;;3.63;;
26600;SDS011;14241;49.260;10.496;2023-05-24T08:17:22;13.55;;;4.03;;
26600;SDS011;14241;49.260;10.496;2023-05-24T08:19:47;11.15;;;3.60;;
26600;SDS011;14241;49.260;10.496;2023-05-24T08:22:12;15.93;;;4.23;;
26600;SDS011;14241;49.260;10.496;2023-05-24T08:24:38;9.02;;;3.17;;
26600;SDS011;14241;49.260;10.496;2023-05-24T08:27:03;14.80;;;3.47;;
26600;SDS011;14241;49.260;10.496;2023-05-24T08:29:28;9.52;;;3.10;;
26600;SDS011;14241;49.260;10.496;2023-05-24T08:31:53;10.80;;;3.30;;
26600;SDS011;14241;49.260;10.496;2023-05-24T08:34:19;12.98;;;3.67;;
26600;SDS011;14241;49.260;10.496;2023-05-24T08:36:44;11.60;;;3.58;;
26600;SDS011;14241;49.260;10.496;2023-05-24T08:39:09;9.13;;;3.10;;
26600;SDS011;14241;49.260;10.496;2023-05-24T08:41:35;15.63;;;3.67;;
26600;SDS011;14241;49.260;10.496;2023-05-24T08:44:06;9.57;;;3.80;;
26600;SDS011;14241;49.260;10.496;2023-05-24T08:46:34;10.48;;;3.38;;
26600;SDS011;14241;49.260;10.496;2023-05-24T08:49:00;8.75;;;2.90;;
26600;SDS011;14241;49.260;10.496;2023-05-24T08:51:27;13.32;;;4.10;;
26600;SDS011;14241;49.260;10.496;2023-05-24T08:53:53;13.20;;;3.97;;
26600;SDS011;14241;49.260;10.496;2023-05-24T08:56:18;14.30;;;3.72;;
26600;SDS011;14241;49.260;10.496;2023-05-24T08:58:44;10.50;;;3.35;;
26600;SDS011;14241;49.260;10.496;2023-05-24T09:01:14;23.15;;;9.85;;
26600;SDS011;14241;49.260;10.496;2023-05-24T09:03:40;31.25;;;20.55;;
26600;SDS011;14241;49.260;10.496;2023-05-24T09:06:07;15.50;;;6.30;;
26600;SDS011;14241;49.260;10.496;2023-05-24T09:08:33;9.23;;;4.15;;
26600;SDS011;14241;49.260;10.496;2023-05-24T09:11:00;13.38;;;3.97;;
26600;SDS011;14241;49.260;10.496;2023-05-24T09:13:26;8.80;;;4.22;;
26600;SDS011;14241;49.260;10.496;2023-05-24T09:15:52;15.18;;;4.30;;
26600;SDS011;14241;49.260;10.496;2023-05-24T09:18:17;11.32;;;3.33;;
26600;SDS011;14241;49.260;10.496;2023-05-24T09:20:42;17.40;;;3.63;;
26600;SDS011;14241;49.260;10.496;2023-05-24T09:23:07;9.10;;;3.33;;
26600;SDS011;14241;49.260;10.496;2023-05-24T09:25:33;14.05;;;3.50;;
26600;SDS011;14241;49.260;10.496;2023-05-24T09:28:00;11.00;;;2.90;;
26600;SDS011;14241;49.260;10.496;2023-05-24T09:30:29;10.07;;;3.08;;
26600;SDS011;14241;49.260;10.496;2023-05-24T09:32:55;13.05;;;3.53;;
26600;SDS011;14241;49.260;10.496;2023-05-24T09:35:21;10.20;;;3.42;;
26600;SDS011;14241;49.260;10.496;2023-05-24T09:37:46;8.73;;;3.47;;
26600;SDS011;14241;49.260;10.496;2023-05-24T09:40:21;13.68;;;3.58;;
26600;SDS011;14241;49.260;10.496;2023-05-24T09:42:47;10.55;;;3.45;;
26600;SDS011;14241;49.260;10.496;2023-05-24T09:45:15;13.95;;;3.72;;
26600;SDS011;14241;49.260;10.496;2023-05-24T09:47:41;15.05;;;3.63;;
26600;SDS011;14241;49.260;10.496;2023-05-24T09:50:13;11.52;;;3.90;;
26600;SDS011;14241;49.260;10.496;2023-05-24T09:52:39;13.82;;;3.47;;
26600;SDS011;14241;49.260;10.496;2023-05-24T09:55:12;12.45;;;3.45;;
26600;SDS011;14241;49.260;10.496;2023-05-24T09:57:38;8.27;;;3.03;;
26600;SDS011;14241;49.260;10.496;2023-05-24T10:00:06;10.43;;;3.20;;
26600;SDS011;14241;49.260;10.496;2023-05-24T10:02:38;8.85;;;3.28;;
26600;SDS011;14241;49.260;10.496;2023-05-24T10:05:03;9.15;;;3.60;;
26600;SDS011;14241;49.260;10.496;2023-05-24T10:07:29;11.30;;;3.08;;
26600;SDS011;14241;49.260;10.496;2023-05-24T10:09:55;11.88;;;3.20;;
26600;SDS011;14241;49.260;10.496;2023-05-24T10:12:21;11.60;;;3.15;;
26600;SDS011;14241;49.260;10.496;2023-05-24T10:14:47;11.13;;;3.55;;
26600;SDS011;14241;49.260;10.496;2023-05-24T10:17:12;11.10;;;3.30;;
26600;SDS011;14241;49.260;10.496;2023-05-24T10:19:38;11.82;;;2.80;;
26600;SDS011;14241;49.260;10.496;2023-05-24T10:22:05;7.07;;;2.92;;
26600;SDS011;14241;49.260;10.496;2023-05-24T10:24:39;11.10;;;3.33;;
26600;SDS011;14241;49.260;10.496;2023-05-24T10:27:08;13.25;;;3.15;;
26600;SDS011;14241;49.260;10.496;2023-05-24T10:29:40;13.13;;;3.75;;
26600;SDS011;14241;49.260;10.496;2023-05-24T10:32:09;11.00;;;3.40;;
26600;SDS011;14241;49.260;10.496;2023-05-24T10:34:34;12.50;;;3.40;;
26600;SDS011;14241;49.260;10.496;2023-05-24T10:37:00;9.63;;;3.22;;
26600;SDS011;14241;49.260;10.496;2023-05-24T10:39:26;8.35;;;2.83;;
26600;SDS011;14241;49.260;10.496;2023-05-24T10:41:54;10.90;;;3.17;;
26600;SDS011;14241;49.260;10.496;2023-05-24T10:44:20;12.60;;;2.67;;
26600;SDS011;14241;49.260;10.496;2023-05-24T10:47:02;20.90;;;3.47;;
26600;SDS011;14241;49.260;10.496;2023-05-24T10:49:28;10.60;;;3.33;;
26600;SDS011;14241;49.260;10.496;2023-05-24T10:51:59;9.40;;;3.17;;
26600;SDS011;14241;49.260;10.496;2023-05-24T10:54:25;8.30;;;2.90;;
26600;SDS011;14241;49.260;10.496;2023-05-24T10:56:51;17.48;;;6.28;;
26600;SDS011;14241;49.260;10.496;2023-05-24T10:59:50;10.63;;;5.82;;
26600;SDS011;14241;49.260;10.496;2023-05-24T11:02:09;10.25;;;3.67;;
26600;SDS011;14241;49.260;10.496;2023-05-24T11:04:39;10.20;;;5.13;;
26600;SDS011;14241;49.260;10.496;2023-05-24T11:07:07;10.25;;;3.10;;
26600;SDS011;14241;49.260;10.496;2023-05-24T11:09:34;8.75;;;2.95;;
26600;SDS011;14241;49.260;10.496;2023-05-24T11:12:03;9.60;;;3.42;;
26600;SDS011;14241;49.260;10.496;2023-05-24T11:14:32;9.90;;;2.88;;
26600;SDS011;14241;49.260;10.496;2023-05-24T11:16:58;8.18;;;3.75;;
26600;SDS011;14241;49.260;10.496;2023-05-24T11:19:30;9.00;;;3.00;;
26600;SDS011;14241;49.260;10.496;2023-05-24T11:21:57;8.27;;;2.83;;
26600;SDS011;14241;49.260;10.496;2023-05-24T11:24:23;6.68;;;2.60;;
26600;SDS011;14241;49.260;10.496;2023-05-24T11:26:50;7.13;;;2.53;;
26600;SDS011;14241;49.260;10.496;2023-05-24T11:29:16;7.88;;;2.90;;
26600;SDS011;14241;49.260;10.496;2023-05-24T11:31:51;8.48;;;2.55;;
26600;SDS011;14241;49.260;10.496;2023-05-24T11:34:18;6.50;;;2.38;;
26600;SDS011;14241;49.260;10.496;2023-05-24T11:36:44;5.38;;;2.40;;
26600;SDS011;14241;49.260;10.496;2023-05-24T11:39:10;7.68;;;2.80;;
26600;SDS011;14241;49.260;10.496;2023-05-24T11:41:36;8.50;;;2.63;;
26600;SDS011;14241;49.260;10.496;2023-05-24T11:44:01;7.15;;;2.60;;
26600;SDS011;14241;49.260;10.496;2023-05-24T11:46:26;6.57;;;2.58;;
26600;SDS011;14241;49.260;10.496;2023-05-24T11:48:57;7.97;;;2.58;;
26600;SDS011;14241;49.260;10.496;2023-05-24T11:51:29;5.82;;;2.13;;
26600;SDS011;14241;49.260;10.496;2023-05-24T11:53:55;6.93;;;2.88;;
26600;SDS011;14241;49.260;10.496;2023-05-24T11:56:21;5.63;;;2.20;;
26600;SDS011;14241;49.260;10.496;2023-05-24T11:58:47;5.75;;;2.38;;
26600;SDS011;14241;49.260;10.496;2023-05-24T12:01:23;9.68;;;2.83;;
26600;SDS011;14241;49.260;10.496;2023-05-24T12:03:50;5.40;;;2.28;;
26600;SDS011;14241;49.260;10.496;2023-05-24T12:06:15;4.65;;;2.33;;
26600;SDS011;14241;49.260;10.496;2023-05-24T12:08:40;7.20;;;2.22;;
26600;SDS011;14241;49.260;10.496;2023-05-24T12:11:05;5.47;;;1.90;;
26600;SDS011;14241;49.260;10.496;2023-05-24T12:13:31;8.57;;;2.22;;
26600;SDS011;14241;49.260;10.496;2023-05-24T12:15:56;4.80;;;2.33;;
26600;SDS011;14241;49.260;10.496;2023-05-24T12:18:23;9.45;;;2.38;;
26600;SDS011;14241;49.260;10.496;2023-05-24T12:20:48;8.48;;;2.85;;
26600;SDS011;14241;49.260;10.496;2023-05-24T12:23:15;5.47;;;2.17;;
26600;SDS011;14241;49.260;10.496;2023-05-24T12:25:40;8.23;;;2.75;;
26600;SDS011;14241;49.260;10.496;2023-05-24T12:28:06;5.73;;;1.93;;
26600;SDS011;14241;49.260;10.496;2023-05-24T12:30:31;7.57;;;2.20;;
26600;SDS011;14241;49.260;10.496;2023-05-24T12:32:56;7.30;;;2.40;;
26600;SDS011;14241;49.260;10.496;2023-05-24T12:35:22;6.70;;;2.45;;
26600;SDS011;14241;49.260;10.496;2023-05-24T12:37:47;8.38;;;2.35;;
26600;SDS011;14241;49.260;10.496;2023-05-24T12:42:44;6.30;;;2.53;;
26600;SDS011;14241;49.260;10.496;2023-05-24T12:45:10;6.05;;;2.85;;
26600;SDS011;14241;49.260;10.496;2023-05-24T12:47:36;8.52;;;3.30;;
26600;SDS011;14241;49.260;10.496;2023-05-24T12:50:01;9.07;;;2.72;;
26600;SDS011;14241;49.260;10.496;2023-05-24T12:52:27;5.93;;;2.47;;
26600;SDS011;14241;49.260;10.496;2023-05-24T12:54:53;8.65;;;3.20;;
26600;SDS011;14241;49.260;10.496;2023-05-24T12:57:18;9.23;;;2.70;;
26600;SDS011;14241;49.260;10.496;2023-05-24T12:59:43;9.43;;;2.92;;
26600;SDS011;14241;49.260;10.496;2023-05-24T13:02:09;9.00;;;2.70;;
26600;SDS011;14241;49.260;10.496;2023-05-24T13:04:34;5.75;;;2.50;;
26600;SDS011;14241;49.260;10.496;2023-05-24T13:07:00;10.50;;;2.58;;
26600;SDS011;14241;49.260;10.496;2023-05-24T13:09:26;8.63;;;2.10;;
26600;SDS011;14241;49.260;10.496;2023-05-24T13:11:52;7.23;;;2.50;;
26600;SDS011;14241;49.260;10.496;2023-05-24T13:14:18;6.03;;;2.40;;
26600;SDS011;14241;49.260;10.496;2023-05-24T13:16:43;4.40;;;1.98;;
26600;SDS011;14241;49.260;10.496;2023-05-24T13:19:09;4.25;;;1.88;;
26600;SDS011;14241;49.260;10.496;2023-05-24T13:21:34;5.10;;;2.00;;
26600;SDS011;14241;49.260;10.496;2023-05-24T13:23:59;9.07;;;2.15;;
26600;SDS011;14241;49.260;10.496;2023-05-24T13:26:25;5.97;;;2.30;;
26600;SDS011;14241;49.260;10.496;2023-05-24T13:28:51;5.57;;;2.40;;
26600;SDS011;14241;49.260;10.496;2023-05-24T13:31:16;7.07;;;2.57;;
26600;SDS011;14241;49.260;10.496;2023-05-24T13:33:41;4.87;;;1.53;;
26600;SDS011;14241;49.260;10.496;2023-05-24T13:36:07;6.72;;;2.00;;
26600;SDS011;14241;49.260;10.496;2023-05-24T13:38:32;4.97;;;2.17;;
26600;SDS011;14241;49.260;10.496;2023-05-24T13:40:57;5.40;;;1.80;;
26600;SDS011;14241;49.260;10.496;2023-05-24T13:43:23;5.93;;;1.83;;
26600;SDS011;14241;49.260;10.496;2023-05-24T13:45:48;3.88;;;1.88;;
26600;SDS011;14241;49.260;10.496;2023-05-24T13:48:14;5.57;;;1.85;;
26600;SDS011;14241;49.260;10.496;2023-05-24T13:50:39;8.23;;;2.53;;
26600;SDS011;14241;49.260;10.496;2023-05-24T13:53:04;7.38;;;1.90;;
26600;SDS011;14241;49.260;10.496;2023-05-24T13:55:31;6.57;;;2.10;;
26600;SDS011;14241;49.260;10.496;2023-05-24T13:57:56;9.60;;;2.45;;
26600;SDS011;14241;49.260;10.496;2023-05-24T14:00:22;5.13;;;2.33;;
26600;SDS011;14241;49.260;10.496;2023-05-24T14:02:47;5.80;;;2.23;;
26600;SDS011;14241;49.260;10.496;2023-05-24T14:05:13;6.90;;;2.65;;
26600;SDS011;14241;49.260;10.496;2023-05-24T14:07:38;4.15;;;2.08;;
26600;SDS011;14241;49.260;10.496;2023-05-24T14:10:03;5.50;;;2.17;;
26600;SDS011;14241;49.260;10.496;2023-05-24T14:12:29;8.88;;;2.90;;
26600;SDS011;14241;49.260;10.496;2023-05-24T14:14:55;10.80;;;2.55;;
26600;SDS011;14241;49.260;10.496;2023-05-24T14:17:20;8.30;;;2.23;;
26600;SDS011;14241;49.260;10.496;2023-05-24T14:19:46;8.07;;;2.63;;
26600;SDS011;14241;49.260;10.496;2023-05-24T14:22:11;7.65;;;2.83;;
26600;SDS011;14241;49.260;10.496;2023-05-24T14:24:36;8.15;;;2.47;;
26600;SDS011;14241;49.260;10.496;2023-05-24T14:27:01;6.57;;;2.30;;
26600;SDS011;14241;49.260;10.496;2023-05-24T14:29:28;9.13;;;2.72;;
26600;SDS011;14241;49.260;10.496;2023-05-24T14:31:53;4.00;;;1.77;;
26600;SDS011;14241;49.260;10.496;2023-05-24T14:34:18;7.00;;;3.50;;
26600;SDS011;14241;49.260;10.496;2023-05-24T14:36:44;6.32;;;2.33;;